createdAt,value
2023-01-21T00:00:17.297Z,31.9
2023-01-21T00:05:16.904Z,31.8
2023-01-21T00:10:17.270Z,31.8
2023-01-21T00:15:17.145Z,31.8
2023-01-21T00:20:17.253Z,31.5
2023-01-21T00:25:17.018Z,31.7
2023-01-21T00:30:17.358Z,31.7
2023-01-21T00:35:17.040Z,31.7
2023-01-21T00:40:17.274Z,31.6
2023-01-21T00:45:16.973Z,31.6
2023-01-21T00:50:17.331Z,31.6
2023-01-21T00:55:16.968Z,31.5
2023-01-21T01:00:17.441Z,31.4
2023-01-21T01:05:17.967Z,31.6
2023-01-21T01:10:17.264Z,31.7
2023-01-21T01:15:17.088Z,31.7
2023-01-21T01:20:17.325Z,31.6
2023-01-21T01:25:17.014Z,31.8
2023-01-21T01:30:17.436Z,31.5
2023-01-21T01:35:17.076Z,31.5
2023-01-21T01:40:17.501Z,31.5
2023-01-21T01:45:17.127Z,31.4
2023-01-21T01:50:17.781Z,31.5
2023-01-21T01:55:17.073Z,31.5
2023-01-21T02:00:17.519Z,31.5
2023-01-21T02:05:17.321Z,31.5
2023-01-21T02:10:17.626Z,31.5
2023-01-21T02:15:17.281Z,31.5
2023-01-21T02:20:17.736Z,31.5
2023-01-21T02:25:17.123Z,31.4
2023-01-21T02:30:17.738Z,31.4
2023-01-21T02:35:17.258Z,31.5
2023-01-21T02:40:17.593Z,31.2
2023-01-21T02:45:17.244Z,31.6
2023-01-21T02:50:17.584Z,31.3
2023-01-21T02:55:17.219Z,31.2
2023-01-21T03:00:17.645Z,31.2
2023-01-21T03:05:17.294Z,31.1
2023-01-21T03:10:17.582Z,30.9
2023-01-21T03:15:17.288Z,30.9
2023-01-21T03:20:17.617Z,30.9
2023-01-21T03:25:17.319Z,30.8
2023-01-21T03:30:17.772Z,30.8
2023-01-21T03:35:17.495Z,30.9
2023-01-21T03:40:17.726Z,30.9
2023-01-21T03:45:17.455Z,30.6
2023-01-21T03:50:17.793Z,30.6
2023-01-21T03:55:15.393Z,30.6
2023-01-21T04:00:15.867Z,30.6
2023-01-21T04:05:15.449Z,30.6
2023-01-21T04:10:15.943Z,30.7
2023-01-21T04:15:15.415Z,30.5
2023-01-21T04:20:15.962Z,30.5
2023-01-21T04:25:16.739Z,30.5
2023-01-21T04:30:16.709Z,30.6
2023-01-21T04:35:16.485Z,30.2
2023-01-21T04:40:17.006Z,30.2
2023-01-21T04:45:16.627Z,30.2
2023-01-21T04:50:16.796Z,30.2
2023-01-21T04:55:16.472Z,30.1
2023-01-21T05:00:15.838Z,30.0
2023-01-21T05:05:15.459Z,30.1
2023-01-21T05:10:15.915Z,30.1
2023-01-21T05:15:15.543Z,29.8
2023-01-21T05:20:16.099Z,29.9
2023-01-21T05:25:15.602Z,29.8
2023-01-21T05:30:15.952Z,29.8
2023-01-21T05:35:15.805Z,29.8
2023-01-21T05:40:16.165Z,29.9
2023-01-21T05:45:15.595Z,29.5
2023-01-21T05:50:16.038Z,29.5
2023-01-21T05:55:15.515Z,29.5
2023-01-21T06:00:15.988Z,29.5
2023-01-21T06:05:15.708Z,29.5
2023-01-21T06:10:16.039Z,29.5
2023-01-21T06:15:15.717Z,29.5
2023-01-21T06:20:16.164Z,29.3
2023-01-21T06:25:15.658Z,29.3
2023-01-21T06:30:16.061Z,29.0
2023-01-21T06:35:15.827Z,29.0
2023-01-21T06:40:16.305Z,28.7
2023-01-21T06:45:15.728Z,28.7
2023-01-21T06:50:16.098Z,28.7
2023-01-21T06:55:15.901Z,28.7
2023-01-21T07:00:16.050Z,28.7
2023-01-21T07:05:16.302Z,28.5
2023-01-21T07:10:16.249Z,28.4
2023-01-21T07:15:16.372Z,28.8
2023-01-21T07:20:15.906Z,28.7
2023-01-21T07:25:16.131Z,28.8
2023-01-21T07:30:16.169Z,28.6
2023-01-21T07:35:16.237Z,28.5
2023-01-21T07:40:15.975Z,28.3
2023-01-21T07:45:16.981Z,28.7
2023-01-21T07:50:16.049Z,28.6
2023-01-21T07:55:16.253Z,28.6
2023-01-21T08:00:15.917Z,28.3
2023-01-21T08:05:16.342Z,28.3
2023-01-21T08:10:15.966Z,28.3
2023-01-21T08:15:16.478Z,28.4
2023-01-21T08:20:16.069Z,28.0
2023-01-21T08:25:17.556Z,28.0
2023-01-21T08:30:17.128Z,28.0
2023-01-21T08:35:17.309Z,28.0
2023-01-21T08:40:17.211Z,28.0
2023-01-21T08:45:17.566Z,28.0
2023-01-21T08:50:17.047Z,28.0
2023-01-21T08:55:17.488Z,28.0
2023-01-21T09:00:17.110Z,28.3
2023-01-21T09:05:17.376Z,28.3
2023-01-21T09:10:17.093Z,28.3
2023-01-21T09:15:17.499Z,28.4
2023-01-21T09:20:17.065Z,28.4
2023-01-21T09:25:17.320Z,28.3
2023-01-21T09:30:17.148Z,28.1
2023-01-21T09:35:17.538Z,28.1
2023-01-21T09:40:17.116Z,28.0
2023-01-21T09:45:17.351Z,28.0
2023-01-21T09:50:17.198Z,27.7
2023-01-21T09:55:17.580Z,27.7
2023-01-21T10:00:17.215Z,27.7
2023-01-21T10:05:17.576Z,27.7
2023-01-21T10:10:17.452Z,27.6
2023-01-21T10:15:17.530Z,27.5
2023-01-21T10:20:17.178Z,27.3
2023-01-21T10:25:17.584Z,27.4
2023-01-21T10:30:17.235Z,27.6
2023-01-21T10:35:17.807Z,27.6
2023-01-21T10:40:17.441Z,27.3
2023-01-21T10:45:17.668Z,27.3
2023-01-21T10:50:17.277Z,27.0
2023-01-21T10:55:17.542Z,26.8
2023-01-21T11:00:17.316Z,26.8
2023-01-21T11:05:17.659Z,26.8
2023-01-21T11:10:17.309Z,26.9
2023-01-21T11:15:17.852Z,26.9
2023-01-21T11:20:17.375Z,26.5
2023-01-21T11:25:15.858Z,26.5
2023-01-21T11:30:37.118Z,26.2
2023-01-21T11:35:15.419Z,25.9
2023-01-21T11:40:16.866Z,26.3
2023-01-21T11:45:15.907Z,26.4
2023-01-21T11:50:15.795Z,26.4
2023-01-21T11:55:15.444Z,26.4
2023-01-21T12:00:16.044Z,26.4
2023-01-21T12:05:15.563Z,26.5
2023-01-21T12:10:15.789Z,26.8
2023-01-21T12:15:15.639Z,26.8
2023-01-21T12:20:15.899Z,27.1
2023-01-21T12:25:15.678Z,27.0
2023-01-21T12:30:15.807Z,27.1
2023-01-21T12:35:15.798Z,27.1
2023-01-21T12:40:15.829Z,27.4
2023-01-21T12:45:15.859Z,27.3
2023-01-21T12:50:15.736Z,27.6
2023-01-21T12:55:15.880Z,27.4
2023-01-21T13:00:16.204Z,27.4
2023-01-21T13:05:16.057Z,27.4
2023-01-21T13:10:15.884Z,27.3
2023-01-21T13:15:15.786Z,27.2
2023-01-21T13:20:16.057Z,27.2
2023-01-21T13:25:15.613Z,27.2
2023-01-21T13:30:16.005Z,27.5
2023-01-21T13:35:16.112Z,27.5
2023-01-21T13:40:15.937Z,27.4
2023-01-21T13:45:15.736Z,27.7
2023-01-21T13:50:15.986Z,27.7
2023-01-21T13:55:15.706Z,27.6
2023-01-21T14:00:16.097Z,27.7
2023-01-21T14:05:15.695Z,27.7
2023-01-21T14:10:16.154Z,27.6
2023-01-21T14:15:16.058Z,27.8
2023-01-21T14:20:16.129Z,27.8
2023-01-21T14:25:15.825Z,27.7
2023-01-21T14:30:16.097Z,27.7
2023-01-21T14:35:15.850Z,27.7
2023-01-21T14:40:16.181Z,27.6
2023-01-21T14:45:16.405Z,27.5
2023-01-21T14:50:16.217Z,27.5
2023-01-21T14:55:16.040Z,27.5
2023-01-21T15:00:15.875Z,27.5
2023-01-21T15:05:16.253Z,27.6
2023-01-21T15:10:15.848Z,27.3
2023-01-21T15:15:16.185Z,27.3
2023-01-21T15:20:15.926Z,27.2
2023-01-21T15:25:16.100Z,27.4
2023-01-21T15:30:16.087Z,27.4
2023-01-21T15:35:16.426Z,27.5
2023-01-21T15:40:15.998Z,27.6
2023-01-21T15:45:16.323Z,27.3
2023-01-21T15:50:15.939Z,27.3
2023-01-21T15:55:16.376Z,27.2
2023-01-21T16:00:15.981Z,27.3
2023-01-21T16:05:16.330Z,27.5
2023-01-21T16:10:16.055Z,27.5
2023-01-21T16:15:16.518Z,27.5
2023-01-21T16:20:16.038Z,27.2
2023-01-21T16:25:16.504Z,27.2
2023-01-21T16:30:16.272Z,27.2
2023-01-21T16:35:16.284Z,27.3
2023-01-21T16:40:16.122Z,27.3
2023-01-21T16:45:16.645Z,27.2
2023-01-21T16:50:16.092Z,27.3
2023-01-21T16:55:16.374Z,27.3
2023-01-21T17:00:16.185Z,27.0
2023-01-21T17:05:16.605Z,26.9
2023-01-21T17:10:16.194Z,26.9
2023-01-21T17:15:16.543Z,27.0
2023-01-21T17:20:16.164Z,26.9
2023-01-21T17:25:16.636Z,26.9
2023-01-21T17:30:16.157Z,26.8
2023-01-21T17:35:16.642Z,26.8
2023-01-21T17:40:16.233Z,26.6
2023-01-21T17:45:16.719Z,26.4
2023-01-21T17:50:16.286Z,26.5
2023-01-21T17:55:16.318Z,26.5
2023-01-21T18:00:16.381Z,26.6
2023-01-21T18:05:16.723Z,26.7
2023-01-21T18:10:16.273Z,26.3
2023-01-21T18:15:16.715Z,26.6
2023-01-21T18:20:16.573Z,26.2
2023-01-21T18:25:16.886Z,26.4
2023-01-21T18:30:16.265Z,25.9
2023-01-21T18:35:16.835Z,26.1
2023-01-21T18:40:16.279Z,26.0
2023-01-21T18:45:16.889Z,26.0
2023-01-21T18:50:16.339Z,25.9
2023-01-21T18:55:16.814Z,26.0
2023-01-21T19:00:16.426Z,26.3
2023-01-21T19:05:16.844Z,26.3
2023-01-21T19:10:16.853Z,25.8
2023-01-21T19:15:16.413Z,25.7
2023-01-21T19:20:16.818Z,25.3
2023-01-21T19:25:16.525Z,25.3
2023-01-21T19:30:16.736Z,25.4
2023-01-21T19:35:16.539Z,25.5
2023-01-21T19:40:16.965Z,24.7
2023-01-21T19:45:16.502Z,24.4
2023-01-21T19:50:16.910Z,24.7
2023-01-21T19:55:16.533Z,24.7
2023-01-21T20:00:16.910Z,24.2
2023-01-21T20:05:16.676Z,24.0
2023-01-21T20:10:16.776Z,23.6
2023-01-21T20:15:17.100Z,23.5
2023-01-21T20:20:16.658Z,23.1
2023-01-21T20:25:16.793Z,23.6
2023-01-21T20:30:16.771Z,23.6
2023-01-21T20:35:16.557Z,23.8
2023-01-21T20:40:17.030Z,23.9
2023-01-21T20:45:17.122Z,23.5
2023-01-21T20:50:16.672Z,23.4
2023-01-21T20:55:19.752Z,23.8
2023-01-21T21:00:16.804Z,23.7
2023-01-21T21:05:17.078Z,23.8
2023-01-21T21:10:17.115Z,23.8
2023-01-21T21:15:17.229Z,23.8
2023-01-21T21:20:17.092Z,23.9
2023-01-21T21:25:17.236Z,23.5
2023-01-21T21:30:16.786Z,23.3
2023-01-21T21:35:17.001Z,23.5
2023-01-21T21:40:16.740Z,23.7
2023-01-21T21:45:17.106Z,24.0
2023-01-21T21:50:16.894Z,24.0
2023-01-21T21:55:16.980Z,24.4
2023-01-21T22:00:16.766Z,24.6
2023-01-21T22:05:17.267Z,24.5
2023-01-21T22:10:16.880Z,24.3
2023-01-21T22:15:17.274Z,24.6
2023-01-21T22:20:16.841Z,24.8
2023-01-21T22:25:17.251Z,24.8
2023-01-21T22:30:16.819Z,25.0
2023-01-21T22:35:17.221Z,24.8
2023-01-21T22:40:16.935Z,24.8
2023-01-21T22:45:19.194Z,25.0
2023-01-21T22:50:16.982Z,25.1
2023-01-21T22:55:17.302Z,25.4
2023-01-21T23:00:16.965Z,25.4
2023-01-21T23:05:17.441Z,25.4
2023-01-21T23:10:17.409Z,25.2
2023-01-21T23:15:16.955Z,25.1
2023-01-21T23:20:17.301Z,25.1
2023-01-21T23:25:16.967Z,25.1
2023-01-21T23:30:17.249Z,25.0
2023-01-21T23:35:16.979Z,25.4
2023-01-21T23:40:17.362Z,25.1
2023-01-21T23:45:17.084Z,25.4
2023-01-21T23:50:17.405Z,25.0
2023-01-21T23:55:17.047Z,25.0
